Terminal Aerodrome Forecast
Issued by NWS

Home | Current Version | Previous Version | Text Only | Print | Product List | Glossary On
Versions: 1 2 3 4 5 6 7 8 9 10 11 12 13 14 15 16 17 18 19 20 21 22 23
582
FTUS41 KPHI 291721
TAFPNE
TAF
KPNE 291721Z 2918/3018 26010G18KT P6SM SCT050 BKN200
     FM292200 29010KT P6SM FEW050 BKN150
     FM300200 01006KT P6SM BKN150
     FM300600 04008KT P6SM BKN035
     FM301700 09010KT P6SM BKN025=

USA.gov is the U.S. government's official web portal to all federal, state and local government web resources and services.